sensor_id;sensor_type;location;lat;lon;timestamp;temperature;humidity
15922;DHT22;8060;50.948;3.146;2022-12-18T08:09:47;-2.90;99.90
15922;DHT22;8060;50.948;3.146;2022-12-18T08:12:15;-2.80;99.90
15922;DHT22;8060;50.948;3.146;2022-12-18T08:14:43;-2.80;99.90
15922;DHT22;8060;50.948;3.146;2022-12-18T08:17:11;-2.70;99.90
15922;DHT22;8060;50.948;3.146;2022-12-18T08:19:39;-2.50;99.90
15922;DHT22;8060;50.948;3.146;2022-12-18T08:22:08;-2.40;99.90
15922;DHT22;8060;50.948;3.146;2022-12-18T08:24:36;-2.30;99.90
15922;DHT22;8060;50.948;3.146;2022-12-18T08:27:05;-2.30;99.90
15922;DHT22;8060;50.948;3.146;2022-12-18T08:29:53;-2.20;99.90
15922;DHT22;8060;50.948;3.146;2022-12-18T08:32:22;-2.10;99.90
15922;DHT22;8060;50.948;3.146;2022-12-18T08:34:50;-2.10;99.90
15922;DHT22;8060;50.948;3.146;2022-12-18T08:37:18;-2.00;99.90
15922;DHT22;8060;50.948;3.146;2022-12-18T08:39:46;-2.00;99.90
15922;DHT22;8060;50.948;3.146;2022-12-18T08:42:16;-2.00;99.90
15922;DHT22;8060;50.948;3.146;2022-12-18T08:45:01;-2.00;99.90
15922;DHT22;8060;50.948;3.146;2022-12-18T08:47:29;-2.00;99.90
15922;DHT22;8060;50.948;3.146;2022-12-18T08:49:58;-1.90;99.90
15922;DHT22;8060;50.948;3.146;2022-12-18T08:52:26;-1.90;99.90
15922;DHT22;8060;50.948;3.146;2022-12-18T08:54:54;-1.90;99.90
15922;DHT22;8060;50.948;3.146;2022-12-18T08:57:24;-1.80;99.90
15922;DHT22;8060;50.948;3.146;2022-12-18T08:59:52;-1.70;99.90
15922;DHT22;8060;50.948;3.146;2022-12-18T09:02:20;-1.70;99.90
15922;DHT22;8060;50.948;3.146;2022-12-18T09:04:49;-1.70;99.90
15922;DHT22;8060;50.948;3.146;2022-12-18T09:07:23;-1.70;99.90
15922;DHT22;8060;50.948;3.146;2022-12-18T09:09:51;-1.70;99.90
15922;DHT22;8060;50.948;3.146;2022-12-18T09:12:20;-1.70;99.90
15922;DHT22;8060;50.948;3.146;2022-12-18T09:14:50;-1.70;99.90
15922;DHT22;8060;50.948;3.146;2022-12-18T09:17:18;-1.60;99.90
15922;DHT22;8060;50.948;3.146;2022-12-18T09:19:49;-1.60;99.90
15922;DHT22;8060;50.948;3.146;2022-12-18T09:22:17;-1.50;99.90
15922;DHT22;8060;50.948;3.146;2022-12-18T09:24:45;-1.60;99.90
15922;DHT22;8060;50.948;3.146;2022-12-18T09:27:13;-1.50;99.90
15922;DHT22;8060;50.948;3.146;2022-12-18T09:29:41;-1.50;99.90
15922;DHT22;8060;50.948;3.146;2022-12-18T09:32:10;-1.50;99.90
15922;DHT22;8060;50.948;3.146;2022-12-18T09:34:44;-1.50;99.90
15922;DHT22;8060;50.948;3.146;2022-12-18T09:37:12;-1.50;99.90
15922;DHT22;8060;50.948;3.146;2022-12-18T09:39:40;-1.50;99.90
15922;DHT22;8060;50.948;3.146;2022-12-18T09:42:14;-1.40;99.90
15922;DHT22;8060;50.948;3.146;2022-12-18T09:44:49;-1.40;99.90
15922;DHT22;8060;50.948;3.146;2022-12-18T09:47:23;-1.40;99.90
15922;DHT22;8060;50.948;3.146;2022-12-18T09:49:55;-1.30;99.90
15922;DHT22;8060;50.948;3.146;2022-12-18T09:52:27;-1.30;99.90
15922;DHT22;8060;50.948;3.146;2022-12-18T09:55:00;-1.30;99.90
15922;DHT22;8060;50.948;3.146;2022-12-18T09:57:32;-1.20;99.90
15922;DHT22;8060;50.948;3.146;2022-12-18T10:00:08;-1.20;99.90
15922;DHT22;8060;50.948;3.146;2022-12-18T10:02:39;-1.20;99.90
15922;DHT22;8060;50.948;3.146;2022-12-18T10:05:10;-1.10;99.90
15922;DHT22;8060;50.948;3.146;2022-12-18T10:07:49;-1.10;99.90
15922;DHT22;8060;50.948;3.146;2022-12-18T10:10:31;-1.20;99.90
15922;DHT22;8060;50.948;3.146;2022-12-18T10:13:06;-1.20;99.90
15922;DHT22;8060;50.948;3.146;2022-12-18T10:15:41;-1.10;99.90
15922;DHT22;8060;50.948;3.146;2022-12-18T10:18:25;-1.20;99.90
15922;DHT22;8060;50.948;3.146;2022-12-18T10:21:00;-1.10;99.90
15922;DHT22;8060;50.948;3.146;2022-12-18T10:23:37;-1.10;99.90
15922;DHT22;8060;50.948;3.146;2022-12-18T10:26:14;-1.10;99.90
15922;DHT22;8060;50.948;3.146;2022-12-18T10:28:43;-1.10;99.90
15922;DHT22;8060;50.948;3.146;2022-12-18T10:31:15;-1.00;99.90
15922;DHT22;8060;50.948;3.146;2022-12-18T10:33:46;-1.00;99.90
15922;DHT22;8060;50.948;3.146;2022-12-18T10:36:14;-1.10;99.90
15922;DHT22;8060;50.948;3.146;2022-12-18T10:38:42;-1.10;99.90
15922;DHT22;8060;50.948;3.146;2022-12-18T10:41:24;-1.10;99.90
15922;DHT22;8060;50.948;3.146;2022-12-18T10:44:12;-1.00;99.90
15922;DHT22;8060;50.948;3.146;2022-12-18T10:46:45;-1.00;99.90
15922;DHT22;8060;50.948;3.146;2022-12-18T10:49:23;-1.00;99.90
15922;DHT22;8060;50.948;3.146;2022-12-18T10:52:05;-0.90;99.90
15922;DHT22;8060;50.948;3.146;2022-12-18T10:54:34;-0.80;99.90
15922;DHT22;8060;50.948;3.146;2022-12-18T10:57:16;-0.80;99.90
15922;DHT22;8060;50.948;3.146;2022-12-18T10:59:51;-0.90;99.90
15922;DHT22;8060;50.948;3.146;2022-12-18T11:02:27;-0.80;99.90
15922;DHT22;8060;50.948;3.146;2022-12-18T11:04:57;-0.80;99.90
15922;DHT22;8060;50.948;3.146;2022-12-18T11:07:25;-0.80;99.90
15922;DHT22;8060;50.948;3.146;2022-12-18T11:10:00;-0.70;99.90
15922;DHT22;8060;50.948;3.146;2022-12-18T11:12:29;-0.80;99.90
15922;DHT22;8060;50.948;3.146;2022-12-18T11:14:58;-0.80;99.90
15922;DHT22;8060;50.948;3.146;2022-12-18T11:17:29;-0.80;99.90
15922;DHT22;8060;50.948;3.146;2022-12-18T11:20:00;-0.80;99.90
15922;DHT22;8060;50.948;3.146;2022-12-18T11:22:30;-0.80;99.90
15922;DHT22;8060;50.948;3.146;2022-12-18T11:24:59;-0.80;99.90
15922;DHT22;8060;50.948;3.146;2022-12-18T11:27:52;-0.80;99.90
15922;DHT22;8060;50.948;3.146;2022-12-18T11:30:23;-0.70;99.90
15922;DHT22;8060;50.948;3.146;2022-12-18T11:32:55;-0.60;99.90
15922;DHT22;8060;50.948;3.146;2022-12-18T11:35:38;-0.50;99.90
15922;DHT22;8060;50.948;3.146;2022-12-18T11:38:17;-0.50;99.90
15922;DHT22;8060;50.948;3.146;2022-12-18T11:40:51;-0.40;99.90
15922;DHT22;8060;50.948;3.146;2022-12-18T11:43:25;-0.50;99.90
15922;DHT22;8060;50.948;3.146;2022-12-18T11:46:00;-0.40;99.90
15922;DHT22;8060;50.948;3.146;2022-12-18T11:48:32;-0.30;99.90
15922;DHT22;8060;50.948;3.146;2022-12-18T11:51:05;-0.40;99.90
15922;DHT22;8060;50.948;3.146;2022-12-18T11:53:37;-0.30;99.90
15922;DHT22;8060;50.948;3.146;2022-12-18T11:56:29;-0.30;99.90
15922;DHT22;8060;50.948;3.146;2022-12-18T11:59:07;-0.20;99.90
15922;DHT22;8060;50.948;3.146;2022-12-18T12:01:45;-0.20;99.90
15922;DHT22;8060;50.948;3.146;2022-12-18T12:04:43;-0.20;99.90
15922;DHT22;8060;50.948;3.146;2022-12-18T12:07:36;-0.20;99.90
15922;DHT22;8060;50.948;3.146;2022-12-18T12:10:20;-0.20;99.90
15922;DHT22;8060;50.948;3.146;2022-12-18T12:13:10;-0.20;99.90
15922;DHT22;8060;50.948;3.146;2022-12-18T12:15:49;-0.20;99.90
15922;DHT22;8060;50.948;3.146;2022-12-18T12:18:28;-0.30;99.90
15922;DHT22;8060;50.948;3.146;2022-12-18T12:21:05;-0.30;99.90
15922;DHT22;8060;50.948;3.146;2022-12-18T12:23:43;-0.20;99.90
15922;DHT22;8060;50.948;3.146;2022-12-18T12:26:20;-0.20;99.90
15922;DHT22;8060;50.948;3.146;2022-12-18T12:29:09;-0.10;99.90
15922;DHT22;8060;50.948;3.146;2022-12-18T12:32:00;-0.10;99.90
15922;DHT22;8060;50.948;3.146;2022-12-18T12:34:36;-0.10;99.90
15922;DHT22;8060;50.948;3.146;2022-12-18T12:37:17;-0.10;99.90
15922;DHT22;8060;50.948;3.146;2022-12-18T12:39:51;-0.10;99.90
15922;DHT22;8060;50.948;3.146;2022-12-18T12:42:30;-0.10;99.90
15922;DHT22;8060;50.948;3.146;2022-12-18T12:45:22;-0.10;99.90
15922;DHT22;8060;50.948;3.146;2022-12-18T12:47:52;-0.10;99.90
15922;DHT22;8060;50.948;3.146;2022-12-18T12:50:22;-0.10;99.90
15922;DHT22;8060;50.948;3.146;2022-12-18T12:52:53;-0.10;99.90
15922;DHT22;8060;50.948;3.146;2022-12-18T12:55:26;-0.10;99.90
15922;DHT22;8060;50.948;3.146;2022-12-18T12:57:59;-0.10;99.90
15922;DHT22;8060;50.948;3.146;2022-12-18T13:00:36;-0.10;99.90
15922;DHT22;8060;50.948;3.146;2022-12-18T13:03:12;0.00;99.90
15922;DHT22;8060;50.948;3.146;2022-12-18T13:05:48;0.00;99.90
15922;DHT22;8060;50.948;3.146;2022-12-18T13:08:23;0.00;99.90
15922;DHT22;8060;50.948;3.146;2022-12-18T13:10:54;0.00;99.90
15922;DHT22;8060;50.948;3.146;2022-12-18T13:13:49;0.00;99.90
15922;DHT22;8060;50.948;3.146;2022-12-18T13:16:20;0.00;99.90
15922;DHT22;8060;50.948;3.146;2022-12-18T13:18:49;0.00;99.90
15922;DHT22;8060;50.948;3.146;2022-12-18T13:21:23;0.00;99.90
15922;DHT22;8060;50.948;3.146;2022-12-18T13:23:53;0.00;99.90
15922;DHT22;8060;50.948;3.146;2022-12-18T13:26:31;0.00;99.90
15922;DHT22;8060;50.948;3.146;2022-12-18T13:29:00;0.10;99.90
15922;DHT22;8060;50.948;3.146;2022-12-18T13:31:59;0.10;99.90
15922;DHT22;8060;50.948;3.146;2022-12-18T13:34:28;0.10;99.90
15922;DHT22;8060;50.948;3.146;2022-12-18T13:39:59;0.20;99.90
15922;DHT22;8060;50.948;3.146;2022-12-18T13:42:40;0.20;99.90
15922;DHT22;8060;50.948;3.146;2022-12-18T13:45:42;0.30;99.90
15922;DHT22;8060;50.948;3.146;2022-12-18T13:48:22;0.20;99.90
15922;DHT22;8060;50.948;3.146;2022-12-18T13:50:55;0.30;99.90
15922;DHT22;8060;50.948;3.146;2022-12-18T13:53:28;0.30;99.90
15922;DHT22;8060;50.948;3.146;2022-12-18T13:55:57;0.30;99.90
15922;DHT22;8060;50.948;3.146;2022-12-18T13:58:27;0.30;99.90
15922;DHT22;8060;50.948;3.146;2022-12-18T14:00:56;0.20;99.90
15922;DHT22;8060;50.948;3.146;2022-12-18T14:03:27;0.30;99.90
15922;DHT22;8060;50.948;3.146;2022-12-18T14:06:00;0.30;99.90
15922;DHT22;8060;50.948;3.146;2022-12-18T14:08:36;0.40;99.90
15922;DHT22;8060;50.948;3.146;2022-12-18T14:11:07;0.30;99.90
15922;DHT22;8060;50.948;3.146;2022-12-18T14:13:48;0.40;99.90
15922;DHT22;8060;50.948;3.146;2022-12-18T14:16:17;0.40;99.90
15922;DHT22;8060;50.948;3.146;2022-12-18T14:18:48;0.40;99.90
15922;DHT22;8060;50.948;3.146;2022-12-18T14:21:20;0.40;99.90
15922;DHT22;8060;50.948;3.146;2022-12-18T14:23:49;0.40;99.90
15922;DHT22;8060;50.948;3.146;2022-12-18T14:26:31;0.50;99.90
15922;DHT22;8060;50.948;3.146;2022-12-18T14:29:18;0.50;99.90
15922;DHT22;8060;50.948;3.146;2022-12-18T14:32:04;0.50;99.90
